Vitsentzos Kornaros — SXNX — position and weather

sailwx.info

Track history (hours):
 
Tides and Currents Weather Stations Pressure Air Temp Water Temp Dewpoint Dewpoint Depression Visibility Wind Speed Wind Dir Waves Ship Positions

Vitsentzos Kornaros

Last reported at 2015-Feb-25 23:27 UTC. Time now 2015-Feb-27 22:41 UTC.
Position N 37°33' E 023°47'.

Length 128 m; draft 4.5 m.

Type: Passenger vessel. MMSI: 239311000.

Date/timePositionNaut miles runAvg speedWind from/ knotsBaromVisibWave heightAir tempDewpointWater temp
2015-Feb-25 23:27N 37°33' E 023°47'1314.1
2015-Feb-25 22:34N 37°45' E 023°40'1212.0
2015-Feb-25 21:33N 37°57' E 023°38'0 0.1
2015-Feb-25 20:33N 37°57' E 023°38'0 0.0
2015-Feb-25 19:33N 37°57' E 023°38'0 0.2
2015-Feb-25 18:33N 37°57' E 023°38'1212.1
2015-Feb-25 17:33N 37°45' E 023°43'1514.9
2015-Feb-25 16:33N 37°32' E 023°51'1414.1
2015-Feb-25 15:33N 37°20' E 024°01'  
2015-Feb-21 22:33N 37°38' E 023°44'1413.8
2015-Feb-21 21:34N 37°51' E 023°37'6 6.0
2015-Feb-21 20:33N 37°57' E 023°38'0 0.0
2015-Feb-21 19:34N 37°57' E 023°38'0 0.0
2015-Feb-21 18:33N 37°57' E 023°38'0 0.0
2015-Feb-21 17:33N 37°57' E 023°38'0 0.0
2015-Feb-21 16:33N 37°57' E 023°38'0 0.1
2015-Feb-21 15:33N 37°57' E 023°38'1211.9
2015-Feb-21 14:33N 37°45' E 023°42'  
2015-Feb-17 20:33N 37°41' E 023°42'1414.5
2015-Feb-17 19:34N 37°54' E 023°37'3 1.4
2015-Feb-17 17:33N 37°57' E 023°38'0 0.0
2015-Feb-17 16:33N 37°57' E 023°38'0 0.0
2015-Feb-17 15:33N 37°57' E 023°38'0 0.0
2015-Feb-17 14:33N 37°57' E 023°38'0 0.0
2015-Feb-17 13:33N 37°57' E 023°38'0 0.0
2015-Feb-17 12:33N 37°57' E 023°38'0 0.0
2015-Feb-17 11:33N 37°57' E 023°38'0 0.0
2015-Feb-17 10:33N 37°57' E 023°38'0 0.0
2015-Feb-17 09:33N 37°57' E 023°38'0 0.0
2015-Feb-17 08:33N 37°57' E 023°38'0 0.0
2015-Feb-17 07:33N 37°57' E 023°38'0 0.0
2015-Feb-17 06:33N 37°57' E 023°38'0 0.0
2015-Feb-17 05:33N 37°57' E 023°38'0 0.0
2015-Feb-17 04:33N 37°57' E 023°38'0 0.0
2015-Feb-17 03:33N 37°57' E 023°38'0 0.0
2015-Feb-17 02:33N 37°57' E 023°38'0 0.0
2015-Feb-17 01:33N 37°57' E 023°38'0 0.0
2015-Feb-17 00:33N 37°57' E 023°38'0 0.0
2015-Feb-16 23:33N 37°57' E 023°38'0 0.0
2015-Feb-16 22:33N 37°57' E 023°38'0 0.0
2015-Feb-16 21:33N 37°57' E 023°38'0 0.0
2015-Feb-16 20:33N 37°57' E 023°38'0 0.0
2015-Feb-16 19:33N 37°57' E 023°38'0 0.0
2015-Feb-16 18:33N 37°57' E 023°38'0 0.0
2015-Feb-16 17:33N 37°57' E 023°38'4 3.9
2015-Feb-16 16:34N 37°53' E 023°38'1515.0
2015-Feb-16 15:33N 37°39' E 023°46'  
Track history (hours):
 
Tides and Currents Weather Stations Pressure Air Temp Water Temp Dewpoint Dewpoint Depression Visibility Wind Speed Wind Dir Waves Ship Positions

Vitsentzos Kornaros

Last reported at 2015-Feb-25 23:27 UTC. Time now 2015-Feb-27 22:41 UTC.
Position N 37°33' E 023°47'.

Length 128 m; draft 4.5 m.

Type: Passenger vessel. MMSI: 239311000.

Date/timePositionNaut miles runAvg speedWind from/ knotsBaromVisibWave heightAir tempDewpointWater temp
2015-Feb-25 23:27N 37°33' E 023°47'1314.1
2015-Feb-25 22:34N 37°45' E 023°40'1212.0
2015-Feb-25 21:33N 37°57' E 023°38'0 0.1
2015-Feb-25 20:33N 37°57' E 023°38'0 0.0
2015-Feb-25 19:33N 37°57' E 023°38'0 0.2
2015-Feb-25 18:33N 37°57' E 023°38'1212.1
2015-Feb-25 17:33N 37°45' E 023°43'1514.9
2015-Feb-25 16:33N 37°32' E 023°51'1414.1
2015-Feb-25 15:33N 37°20' E 024°01'  
2015-Feb-21 22:33N 37°38' E 023°44'1413.8
2015-Feb-21 21:34N 37°51' E 023°37'6 6.0
2015-Feb-21 20:33N 37°57' E 023°38'0 0.0
2015-Feb-21 19:34N 37°57' E 023°38'0 0.0
2015-Feb-21 18:33N 37°57' E 023°38'0 0.0
2015-Feb-21 17:33N 37°57' E 023°38'0 0.0
2015-Feb-21 16:33N 37°57' E 023°38'0 0.1
2015-Feb-21 15:33N 37°57' E 023°38'1211.9
2015-Feb-21 14:33N 37°45' E 023°42'  
2015-Feb-17 20:33N 37°41' E 023°42'1414.5
2015-Feb-17 19:34N 37°54' E 023°37'3 1.4
2015-Feb-17 17:33N 37°57' E 023°38'0 0.0
2015-Feb-17 16:33N 37°57' E 023°38'0 0.0
2015-Feb-17 15:33N 37°57' E 023°38'0 0.0
2015-Feb-17 14:33N 37°57' E 023°38'0 0.0
2015-Feb-17 13:33N 37°57' E 023°38'0 0.0
2015-Feb-17 12:33N 37°57' E 023°38'0 0.0
2015-Feb-17 11:33N 37°57' E 023°38'0 0.0
2015-Feb-17 10:33N 37°57' E 023°38'0 0.0
2015-Feb-17 09:33N 37°57' E 023°38'0 0.0
2015-Feb-17 08:33N 37°57' E 023°38'0 0.0
2015-Feb-17 07:33N 37°57' E 023°38'0 0.0
2015-Feb-17 06:33N 37°57' E 023°38'0 0.0
2015-Feb-17 05:33N 37°57' E 023°38'0 0.0
2015-Feb-17 04:33N 37°57' E 023°38'0 0.0
2015-Feb-17 03:33N 37°57' E 023°38'0 0.0
2015-Feb-17 02:33N 37°57' E 023°38'0 0.0
2015-Feb-17 01:33N 37°57' E 023°38'0 0.0
2015-Feb-17 00:33N 37°57' E 023°38'0 0.0
2015-Feb-16 23:33N 37°57' E 023°38'0 0.0
2015-Feb-16 22:33N 37°57' E 023°38'0 0.0
2015-Feb-16 21:33N 37°57' E 023°38'0 0.0
2015-Feb-16 20:33N 37°57' E 023°38'0 0.0
2015-Feb-16 19:33N 37°57' E 023°38'0 0.0
2015-Feb-16 18:33N 37°57' E 023°38'0 0.0
2015-Feb-16 17:33N 37°57' E 023°38'4 3.9
2015-Feb-16 16:34N 37°53' E 023°38'1515.0
2015-Feb-16 15:33N 37°39' E 023°46'  

Dump ship's entire track history